createdAt,value
2018-12-01T00:00:04.438Z,10.988464
2018-12-01T00:00:24.033Z,10.998535
2018-12-01T00:00:43.622Z,11.018677
2018-12-01T00:01:03.184Z,11.038818
2018-12-01T00:01:22.749Z,11.038818
2018-12-01T00:01:42.308Z,11.038818
2018-12-01T00:02:02.854Z,11.069031
2018-12-01T00:02:22.499Z,11.018677
2018-12-01T00:02:42.055Z,11.028748
2018-12-01T00:03:01.659Z,11.028748
2018-12-01T00:03:21.180Z,11.018677
2018-12-01T00:03:40.693Z,10.998535
2018-12-01T00:04:00.337Z,10.958252
2018-12-01T00:04:19.832Z,10.917969
2018-12-01T00:04:39.368Z,10.847473
2018-12-01T00:04:58.963Z,10.817261
2018-12-01T00:05:18.491Z,10.80719
2018-12-01T00:05:38.162Z,10.80719
2018-12-01T00:05:57.703Z,10.736694
2018-12-01T00:06:17.245Z,10.736694
2018-12-01T00:06:36.857Z,10.756836
2018-12-01T00:06:56.419Z,10.776978
2018-12-01T00:07:15.990Z,10.756836
2018-12-01T00:07:35.538Z,10.736694
2018-12-01T00:07:55.128Z,10.726624
2018-12-01T00:08:14.687Z,10.736694
2018-12-01T00:08:34.232Z,10.726624
2018-12-01T00:08:53.821Z,10.726624
2018-12-01T00:09:13.358Z,10.726624
2018-12-01T00:09:32.880Z,10.726624
2018-12-01T00:09:53.536Z,10.706482
2018-12-01T00:10:13.073Z,10.736694
2018-12-01T00:10:32.623Z,10.726624
2018-12-01T00:10:52.194Z,10.696411
2018-12-01T00:11:12.756Z,10.666199
2018-12-01T00:11:32.340Z,10.67627
2018-12-01T00:11:51.923Z,10.666199
2018-12-01T00:12:11.507Z,10.67627
2018-12-01T00:12:31.185Z,10.696411
2018-12-01T00:12:50.774Z,10.67627
2018-12-01T00:13:10.372Z,10.696411
2018-12-01T00:13:29.922Z,10.736694
2018-12-01T00:13:49.482Z,10.706482
2018-12-01T00:14:09.040Z,10.726624
2018-12-01T00:14:28.586Z,10.726624
2018-12-01T00:14:48.136Z,10.756836
2018-12-01T00:15:07.715Z,10.776978
2018-12-01T00:15:27.285Z,10.756836
2018-12-01T00:15:47.873Z,10.756836
2018-12-01T00:16:07.416Z,10.787048
2018-12-01T00:16:26.994Z,10.787048
2018-12-01T00:16:46.549Z,10.776978
2018-12-01T00:17:06.131Z,10.756836
2018-12-01T00:17:25.730Z,10.726624
2018-12-01T00:17:45.261Z,10.736694
2018-12-01T00:18:04.804Z,10.726624
2018-12-01T00:18:24.352Z,10.726624
2018-12-01T00:18:43.899Z,10.726624
2018-12-01T00:19:03.461Z,10.696411
2018-12-01T00:19:23.016Z,10.696411
2018-12-01T00:19:43.540Z,10.706482
2018-12-01T00:20:03.068Z,10.696411
2018-12-01T00:20:23.649Z,10.515137
2018-12-01T00:20:43.189Z,10.444641
2018-12-01T00:21:02.719Z,10.343933
2018-12-01T00:21:22.244Z,10.263367
2018-12-01T00:21:41.833Z,10.253296
2018-12-01T00:22:01.386Z,10.1828
2018-12-01T00:22:20.946Z,10.202942
2018-12-01T00:22:41.526Z,10.253296
2018-12-01T00:23:01.058Z,10.30365
2018-12-01T00:23:20.572Z,10.384216
2018-12-01T00:23:40.210Z,10.384216
2018-12-01T00:24:00.838Z,10.444641
2018-12-01T00:24:20.424Z,10.4245
2018-12-01T00:24:39.965Z,10.444641
2018-12-01T00:25:00.524Z,10.454712
2018-12-01T00:25:20.108Z,10.454712
2018-12-01T00:25:39.742Z,10.454712
2018-12-01T00:25:59.298Z,10.474854
2018-12-01T00:26:18.872Z,10.474854
2018-12-01T00:26:38.452Z,10.484924
2018-12-01T00:26:58.102Z,10.444641
2018-12-01T00:27:17.781Z,10.444641
2018-12-01T00:27:37.405Z,10.474854
2018-12-01T00:27:56.965Z,10.454712
2018-12-01T00:28:16.492Z,10.4245
2018-12-01T00:28:36.025Z,10.4245
2018-12-01T00:28:55.574Z,10.454712
2018-12-01T00:29:15.148Z,10.454712
2018-12-01T00:29:34.754Z,10.474854
2018-12-01T00:29:54.331Z,10.515137
2018-12-01T00:30:13.919Z,10.545349
2018-12-01T00:30:33.536Z,10.474854
2018-12-01T00:30:53.058Z,10.444641
2018-12-01T00:31:12.616Z,10.484924
2018-12-01T00:31:32.222Z,10.474854
2018-12-01T00:31:51.745Z,10.4245
2018-12-01T00:32:11.356Z,10.404358
2018-12-01T00:32:31.043Z,10.444641
2018-12-01T00:32:51.694Z,10.454712
2018-12-01T00:33:11.315Z,10.474854
2018-12-01T00:33:30.897Z,10.484924
2018-12-01T00:33:50.438Z,10.454712
2018-12-01T00:34:10.989Z,10.454712
2018-12-01T00:34:30.539Z,10.444641
2018-12-01T00:34:50.056Z,10.384216
2018-12-01T00:35:09.669Z,10.404358
2018-12-01T00:35:29.223Z,10.384216
2018-12-01T00:35:48.769Z,10.384216
2018-12-01T00:36:08.331Z,10.364075
2018-12-01T00:36:28.001Z,10.333862
2018-12-01T00:36:48.522Z,10.273438
2018-12-01T00:37:08.064Z,10.172729
2018-12-01T00:37:27.656Z,10.142517
2018-12-01T00:37:47.325Z,10.142517
2018-12-01T00:38:08.000Z,10.1828
2018-12-01T00:38:27.674Z,10.253296
2018-12-01T00:38:47.280Z,10.263367
2018-12-01T00:39:06.829Z,10.273438
2018-12-01T00:39:26.389Z,10.293579
2018-12-01T00:39:45.927Z,10.323792
2018-12-01T00:40:05.530Z,10.364075
2018-12-01T00:40:25.097Z,10.333862
2018-12-01T00:40:44.784Z,10.343933
2018-12-01T00:41:04.338Z,10.364075
2018-12-01T00:41:23.902Z,10.364075
2018-12-01T00:41:43.430Z,10.404358
2018-12-01T00:42:02.974Z,10.384216
2018-12-01T00:42:22.577Z,10.4245
2018-12-01T00:42:42.193Z,10.414429
2018-12-01T00:43:01.806Z,10.414429
2018-12-01T00:43:21.414Z,10.343933
2018-12-01T00:43:41.033Z,10.293579
2018-12-01T00:44:00.626Z,10.273438
2018-12-01T00:44:20.202Z,10.30365
2018-12-01T00:44:39.775Z,10.30365
2018-12-01T00:44:59.401Z,10.323792
2018-12-01T00:45:18.969Z,10.323792
2018-12-01T00:45:38.579Z,10.293579
2018-12-01T00:45:58.145Z,10.30365
2018-12-01T00:46:18.680Z,10.343933
2018-12-01T00:46:38.275Z,10.384216
2018-12-01T00:46:57.857Z,10.384216
2018-12-01T00:47:17.412Z,10.444641
2018-12-01T00:47:37.022Z,10.454712
2018-12-01T00:47:56.602Z,10.454712
2018-12-01T00:48:16.158Z,10.414429
2018-12-01T00:48:35.721Z,10.364075
2018-12-01T00:48:55.359Z,10.384216
2018-12-01T00:49:14.982Z,10.404358
2018-12-01T00:49:34.530Z,10.364075
2018-12-01T00:49:54.092Z,10.323792
2018-12-01T00:50:14.654Z,10.333862
2018-12-01T00:50:34.178Z,10.333862
2018-12-01T00:50:53.805Z,10.30365
2018-12-01T00:51:13.348Z,10.273438
2018-12-01T00:51:32.882Z,10.273438
2018-12-01T00:51:52.494Z,10.273438
2018-12-01T00:52:12.098Z,10.293579
2018-12-01T00:52:31.704Z,10.293579
2018-12-01T00:52:51.275Z,10.323792
2018-12-01T00:53:10.878Z,10.414429
2018-12-01T00:53:30.434Z,10.384216
2018-12-01T00:53:50.012Z,10.4245
2018-12-01T00:54:09.609Z,10.454712
2018-12-01T00:54:29.200Z,10.484924
2018-12-01T00:54:48.753Z,10.525208
2018-12-01T00:55:08.352Z,10.525208
2018-12-01T00:55:27.936Z,10.515137
2018-12-01T00:55:47.466Z,10.525208
2018-12-01T00:56:07.005Z,10.55542
2018-12-01T00:56:26.507Z,10.585632
2018-12-01T00:56:46.030Z,10.55542
2018-12-01T00:57:05.621Z,10.55542
2018-12-01T00:57:25.196Z,10.55542
2018-12-01T00:57:44.773Z,10.515137
2018-12-01T00:58:04.401Z,10.505066
2018-12-01T00:58:23.993Z,10.474854
2018-12-01T00:58:43.568Z,10.4245
2018-12-01T00:59:03.104Z,10.454712
2018-12-01T00:59:22.688Z,10.444641
2018-12-01T00:59:42.443Z,10.4245
2018-12-01T01:00:01.984Z,10.4245
2018-12-01T01:00:21.588Z,10.444641
2018-12-01T01:00:41.173Z,10.384216
2018-12-01T01:01:00.759Z,10.364075
2018-12-01T01:01:20.433Z,10.414429
2018-12-01T01:01:39.995Z,10.414429
2018-12-01T01:01:59.537Z,10.444641
2018-12-01T01:02:19.136Z,10.414429
2018-12-01T01:02:38.708Z,10.343933
2018-12-01T01:02:58.308Z,10.323792
2018-12-01T01:03:17.926Z,10.323792
2018-12-01T01:03:37.451Z,10.333862
2018-12-01T01:03:58.020Z,10.364075
2018-12-01T01:04:17.601Z,10.333862
2018-12-01T01:04:37.135Z,10.343933
2018-12-01T01:04:56.738Z,10.343933
2018-12-01T01:05:16.330Z,10.404358
2018-12-01T01:05:35.864Z,10.4245
2018-12-01T01:05:55.428Z,10.454712
2018-12-01T01:06:14.982Z,10.454712
2018-12-01T01:06:34.523Z,10.454712
2018-12-01T01:06:54.068Z,10.474854
2018-12-01T01:07:13.613Z,10.444641
2018-12-01T01:07:33.227Z,10.404358
2018-12-01T01:07:52.756Z,10.4245
2018-12-01T01:08:12.320Z,10.444641
2018-12-01T01:08:31.949Z,10.454712
2018-12-01T01:08:51.538Z,10.474854
2018-12-01T01:09:11.101Z,10.4245
2018-12-01T01:09:30.658Z,10.444641
2018-12-01T01:09:50.188Z,10.4245
2018-12-01T01:10:09.757Z,10.4245
2018-12-01T01:10:29.325Z,10.4245
2018-12-01T01:10:48.884Z,10.444641
2018-12-01T01:11:08.499Z,10.474854
2018-12-01T01:11:28.059Z,10.343933
2018-12-01T01:11:47.600Z,10.293579
2018-12-01T01:12:07.136Z,10.233154
2018-12-01T01:12:26.754Z,10.1828
2018-12-01T01:12:46.317Z,10.142517
2018-12-01T01:13:05.878Z,10.122375
2018-12-01T01:13:25.490Z,10.122375
2018-12-01T01:13:45.063Z,10.072021
2018-12-01T01:14:04.662Z,9.971313
2018-12-01T01:14:24.210Z,9.900818
2018-12-01T01:14:43.798Z,9.860535
2018-12-01T01:15:03.342Z,9.870605
2018-12-01T01:15:22.998Z,9.890747
2018-12-01T01:15:42.591Z,9.860535
2018-12-01T01:16:02.128Z,9.790039
2018-12-01T01:16:21.700Z,9.840393
2018-12-01T01:16:41.215Z,9.830322
2018-12-01T01:17:00.796Z,9.890747
2018-12-01T01:17:20.342Z,9.900818
2018-12-01T01:17:39.881Z,9.941101
2018-12-01T01:17:59.413Z,9.961243
2018-12-01T01:18:19.015Z,9.991455
2018-12-01T01:18:38.585Z,10.072021
2018-12-01T01:18:58.151Z,10.112305
2018-12-01T01:19:17.760Z,10.112305
2018-12-01T01:19:37.337Z,10.1828
2018-12-01T01:19:56.919Z,10.202942
2018-12-01T01:20:16.524Z,10.233154
2018-12-01T01:20:36.031Z,10.223083
2018-12-01T01:20:55.615Z,10.263367
2018-12-01T01:21:15.165Z,10.233154
2018-12-01T01:21:34.738Z,10.1828
2018-12-01T01:21:54.380Z,10.172729
2018-12-01T01:22:13.926Z,10.202942
2018-12-01T01:22:33.502Z,10.253296
2018-12-01T01:22:53.080Z,10.30365
2018-12-01T01:23:12.608Z,10.333862
2018-12-01T01:23:32.203Z,10.343933
2018-12-01T01:23:51.773Z,10.333862
2018-12-01T01:24:11.367Z,10.364075
2018-12-01T01:24:30.903Z,10.333862
2018-12-01T01:24:50.425Z,10.323792
2018-12-01T01:25:09.952Z,10.30365
2018-12-01T01:25:29.517Z,10.323792
2018-12-01T01:25:49.077Z,10.30365
2018-12-01T01:26:08.658Z,10.293579
2018-12-01T01:26:28.627Z,10.30365
2018-12-01T01:26:48.897Z,10.293579
2018-12-01T01:27:08.683Z,10.223083
2018-12-01T01:27:28.200Z,10.223083
2018-12-01T01:27:47.724Z,10.1828
2018-12-01T01:28:07.255Z,10.202942
2018-12-01T01:28:26.860Z,10.202942
2018-12-01T01:28:46.398Z,10.253296
2018-12-01T01:29:05.920Z,10.293579
2018-12-01T01:29:25.437Z,10.273438
2018-12-01T01:29:45.073Z,10.273438
2018-12-01T01:30:04.642Z,10.263367
2018-12-01T01:30:24.229Z,10.223083
2018-12-01T01:30:43.842Z,10.233154
2018-12-01T01:31:03.426Z,10.202942
2018-12-01T01:31:22.971Z,10.233154
2018-12-01T01:31:42.549Z,10.223083
2018-12-01T01:32:02.106Z,10.253296
2018-12-01T01:32:21.711Z,10.263367
2018-12-01T01:32:41.242Z,10.293579
2018-12-01T01:33:00.818Z,10.323792
2018-12-01T01:33:20.416Z,10.30365
2018-12-01T01:33:40.008Z,10.333862
2018-12-01T01:33:59.642Z,10.323792
2018-12-01T01:34:19.193Z,10.384216
2018-12-01T01:34:38.940Z,10.343933
2018-12-01T01:34:58.436Z,10.384216
2018-12-01T01:35:18.099Z,10.384216
2018-12-01T01:35:37.749Z,10.333862
2018-12-01T01:35:57.264Z,10.30365
2018-12-01T01:36:16.830Z,10.263367
2018-12-01T01:36:36.357Z,10.253296
2018-12-01T01:36:55.902Z,10.223083
2018-12-01T01:37:15.468Z,10.233154
2018-12-01T01:37:34.994Z,10.233154
2018-12-01T01:37:54.753Z,10.30365
2018-12-01T01:38:14.328Z,10.30365
2018-12-01T01:38:33.997Z,10.323792
2018-12-01T01:38:53.558Z,10.343933
2018-12-01T01:39:13.396Z,10.384216
2018-12-01T01:39:33.063Z,10.444641
2018-12-01T01:39:52.567Z,10.454712
2018-12-01T01:40:12.215Z,10.474854
2018-12-01T01:40:31.879Z,10.525208
2018-12-01T01:40:51.391Z,10.515137
2018-12-01T01:41:10.918Z,10.55542
2018-12-01T01:41:30.545Z,10.545349
2018-12-01T01:41:50.112Z,10.55542
2018-12-01T01:42:09.613Z,10.55542
2018-12-01T01:42:29.161Z,10.585632
2018-12-01T01:42:48.719Z,10.55542
2018-12-01T01:43:08.277Z,10.595703
2018-12-01T01:43:28.023Z,10.595703
2018-12-01T01:43:47.795Z,10.55542
2018-12-01T01:44:07.298Z,10.545349
2018-12-01T01:44:26.958Z,10.55542
2018-12-01T01:44:46.565Z,10.545349
2018-12-01T01:45:06.119Z,10.585632
2018-12-01T01:45:26.489Z,10.545349
2018-12-01T01:45:46.102Z,10.545349
2018-12-01T01:46:05.678Z,10.525208
2018-12-01T01:46:27.049Z,10.525208
2018-12-01T01:46:46.675Z,10.515137
2018-12-01T01:47:06.221Z,10.515137
2018-12-01T01:47:25.762Z,10.525208
2018-12-01T01:47:45.305Z,10.55542
2018-12-01T01:48:04.845Z,10.585632
2018-12-01T01:48:24.366Z,10.595703
2018-12-01T01:48:44.101Z,10.605774
2018-12-01T01:49:03.631Z,10.625916
2018-12-01T01:49:23.207Z,10.585632
2018-12-01T01:49:43.885Z,10.605774
2018-12-01T01:50:03.473Z,10.605774
2018-12-01T01:50:23.023Z,10.605774
2018-12-01T01:50:42.608Z,10.595703
2018-12-01T01:51:02.227Z,10.625916
2018-12-01T01:51:21.867Z,10.605774
2018-12-01T01:51:41.401Z,10.605774
2018-12-01T01:52:01.563Z,10.605774
2018-12-01T01:52:21.070Z,10.635986
2018-12-01T01:52:40.571Z,10.656128
2018-12-01T01:53:00.147Z,10.635986
2018-12-01T01:53:19.700Z,10.625916
2018-12-01T01:53:39.300Z,10.635986
2018-12-01T01:53:58.895Z,10.635986
2018-12-01T01:54:18.445Z,10.656128
2018-12-01T01:54:38.000Z,10.635986
2018-12-01T01:54:57.529Z,10.656128
2018-12-01T01:55:17.495Z,10.666199
2018-12-01T01:55:37.185Z,10.67627
2018-12-01T01:55:56.729Z,10.625916
2018-12-01T01:56:16.272Z,10.635986
2018-12-01T01:56:36.632Z,10.625916
2018-12-01T01:56:58.710Z,10.656128
2018-12-01T01:57:18.292Z,10.635986
2018-12-01T01:57:37.824Z,10.656128
2018-12-01T01:57:57.432Z,10.635986
2018-12-01T01:58:16.969Z,10.656128
2018-12-01T01:58:36.769Z,10.666199
2018-12-01T01:58:57.016Z,10.67627
2018-12-01T01:59:16.535Z,10.67627
2018-12-01T01:59:36.168Z,10.706482
2018-12-01T01:59:55.698Z,10.696411
2018-12-01T02:00:15.263Z,10.736694
2018-12-01T02:00:34.836Z,10.706482
2018-12-01T02:00:54.397Z,10.635986
2018-12-01T02:01:13.972Z,10.545349
2018-12-01T02:01:33.625Z,10.444641
2018-12-01T02:01:53.205Z,10.384216
2018-12-01T02:02:13.834Z,10.273438
2018-12-01T02:02:34.052Z,10.172729
2018-12-01T02:02:53.648Z,10.122375
2018-12-01T02:03:13.242Z,10.05188
2018-12-01T02:03:32.808Z,10.011597
2018-12-01T02:03:52.420Z,9.890747
2018-12-01T02:04:11.971Z,9.900818
2018-12-01T02:04:31.531Z,9.810181
2018-12-01T02:04:51.145Z,9.810181
2018-12-01T02:05:10.683Z,9.759827
2018-12-01T02:05:30.263Z,9.739685
2018-12-01T02:05:49.814Z,9.689331
2018-12-01T02:06:09.382Z,9.659119
2018-12-01T02:06:29.208Z,9.608765
2018-12-01T02:06:48.738Z,9.578552
2018-12-01T02:07:08.274Z,9.578552
2018-12-01T02:07:27.841Z,9.598694
2018-12-01T02:07:47.387Z,9.659119
2018-12-01T02:08:08.160Z,9.649048
2018-12-01T02:08:27.738Z,9.67926
2018-12-01T02:08:47.274Z,9.749756
2018-12-01T02:09:06.935Z,9.830322
2018-12-01T02:09:26.523Z,9.870605
2018-12-01T02:09:46.073Z,9.961243
2018-12-01T02:10:05.657Z,10.041809
2018-12-01T02:10:25.300Z,10.072021
2018-12-01T02:10:44.860Z,10.092163
2018-12-01T02:11:04.419Z,10.142517
2018-12-01T02:11:23.935Z,10.223083
2018-12-01T02:11:43.489Z,10.273438
2018-12-01T02:12:03.116Z,10.333862
2018-12-01T02:12:22.630Z,10.343933
2018-12-01T02:12:42.183Z,10.4245
2018-12-01T02:13:01.710Z,10.474854
2018-12-01T02:13:21.285Z,10.545349
2018-12-01T02:13:40.941Z,10.545349
2018-12-01T02:14:00.523Z,10.605774
2018-12-01T02:14:20.060Z,10.625916
2018-12-01T02:14:39.588Z,10.696411
2018-12-01T02:14:59.245Z,10.736694
2018-12-01T02:15:18.819Z,10.776978
2018-12-01T02:15:38.665Z,10.756836
2018-12-01T02:15:58.198Z,10.817261
2018-12-01T02:16:17.785Z,10.837402
2018-12-01T02:16:37.331Z,10.847473
2018-12-01T02:16:56.868Z,10.847473
2018-12-01T02:17:16.365Z,10.907898
2018-12-01T02:17:35.885Z,10.887756
2018-12-01T02:17:55.384Z,10.877686
2018-12-01T02:18:14.901Z,10.857544
2018-12-01T02:18:34.447Z,10.907898
2018-12-01T02:18:53.977Z,10.958252
2018-12-01T02:19:13.576Z,10.93811
2018-12-01T02:19:33.135Z,10.917969
2018-12-01T02:19:52.714Z,10.968323
2018-12-01T02:20:12.229Z,10.93811
2018-12-01T02:20:31.768Z,10.968323
2018-12-01T02:20:51.346Z,11.018677
2018-12-01T02:21:10.861Z,11.028748
2018-12-01T02:21:30.388Z,10.998535
2018-12-01T02:21:49.922Z,10.958252
2018-12-01T02:22:09.448Z,10.968323
2018-12-01T02:22:28.944Z,10.907898
2018-12-01T02:22:48.525Z,10.837402
2018-12-01T02:23:08.004Z,10.776978
2018-12-01T02:23:27.516Z,10.726624
2018-12-01T02:23:47.107Z,10.756836
2018-12-01T02:24:06.722Z,10.756836
2018-12-01T02:24:26.225Z,10.726624
2018-12-01T02:24:45.769Z,10.696411
2018-12-01T02:25:05.305Z,10.726624
2018-12-01T02:25:24.828Z,10.706482
2018-12-01T02:25:44.331Z,10.756836
2018-12-01T02:26:03.854Z,10.736694
2018-12-01T02:26:24.375Z,10.787048
2018-12-01T02:26:43.916Z,10.726624
2018-12-01T02:27:03.420Z,10.706482
2018-12-01T02:27:22.953Z,10.736694
2018-12-01T02:27:43.609Z,10.736694
2018-12-01T02:28:03.222Z,10.736694
2018-12-01T02:28:23.082Z,10.736694
2018-12-01T02:28:42.822Z,10.756836
2018-12-01T02:29:02.411Z,10.736694
2018-12-01T02:29:21.981Z,10.726624
2018-12-01T02:29:41.653Z,10.696411
2018-12-01T02:30:01.215Z,10.67627
2018-12-01T02:30:20.781Z,10.706482
2018-12-01T02:30:40.356Z,10.696411
2018-12-01T02:30:59.916Z,10.736694
2018-12-01T02:31:19.475Z,10.726624
2018-12-01T02:31:39.416Z,10.706482
2018-12-01T02:31:59.259Z,10.696411
2018-12-01T02:32:19.789Z,10.706482
2018-12-01T02:32:39.421Z,10.706482
2018-12-01T02:32:58.929Z,10.696411
2018-12-01T02:33:18.549Z,10.696411
2018-12-01T02:33:38.163Z,10.696411
2018-12-01T02:33:57.800Z,10.656128
2018-12-01T02:34:17.418Z,10.625916
2018-12-01T02:34:36.968Z,10.585632
2018-12-01T02:34:56.552Z,10.595703
2018-12-01T02:35:16.167Z,10.625916
2018-12-01T02:35:35.703Z,10.625916
2018-12-01T02:35:56.146Z,10.605774
2018-12-01T02:36:15.653Z,10.605774
2018-12-01T02:36:35.152Z,10.625916
2018-12-01T02:36:55.715Z,10.625916
2018-12-01T02:37:15.238Z,10.605774
2018-12-01T02:37:34.905Z,10.595703
2018-12-01T02:37:55.039Z,10.595703
2018-12-01T02:38:14.366Z,10.585632
2018-12-01T02:38:34.594Z,10.595703
2018-12-01T02:38:54.497Z,10.605774
2018-12-01T02:39:15.035Z,10.595703
2018-12-01T02:39:34.657Z,10.55542
2018-12-01T02:39:54.302Z,10.505066
2018-12-01T02:40:13.892Z,10.515137
2018-12-01T02:40:34.475Z,10.545349
2018-12-01T02:40:54.009Z,10.525208
2018-12-01T02:41:13.614Z,10.515137
2018-12-01T02:41:33.182Z,10.404358
2018-12-01T02:41:52.714Z,10.202942
2018-12-01T02:42:12.231Z,10.082092
2018-12-01T02:42:31.810Z,9.991455
2018-12-01T02:42:51.346Z,9.961243
2018-12-01T02:43:10.915Z,9.900818
2018-12-01T02:43:30.788Z,9.93103
2018-12-01T02:43:50.407Z,9.971313
2018-12-01T02:44:11.047Z,10.011597
2018-12-01T02:44:30.856Z,10.021667
2018-12-01T02:44:50.484Z,10.092163
2018-12-01T02:45:10.194Z,10.142517
2018-12-01T02:45:30.983Z,10.1828
2018-12-01T02:45:50.805Z,10.263367
2018-12-01T02:46:10.636Z,10.293579
2018-12-01T02:46:30.493Z,10.323792
2018-12-01T02:46:50.270Z,10.384216
2018-12-01T02:47:10.867Z,10.404358
2018-12-01T02:47:30.490Z,10.4245
2018-12-01T02:47:50.000Z,10.474854
2018-12-01T02:48:09.531Z,10.474854
2018-12-01T02:48:29.699Z,10.444641
2018-12-01T02:48:49.285Z,10.364075
2018-12-01T02:49:08.845Z,10.323792
2018-12-01T02:49:28.446Z,10.30365
2018-12-01T02:49:47.967Z,10.30365
2018-12-01T02:50:07.509Z,10.333862
2018-12-01T02:50:27.018Z,10.364075
2018-12-01T02:50:46.586Z,10.364075
2018-12-01T02:51:06.308Z,10.30365
2018-12-01T02:51:25.882Z,10.1828
2018-12-01T02:51:45.523Z,10.021667
2018-12-01T02:52:05.092Z,9.860535
2018-12-01T02:52:24.674Z,9.830322
2018-12-01T02:52:44.224Z,9.810181
2018-12-01T02:53:03.842Z,9.779968
2018-12-01T02:53:23.401Z,9.830322
2018-12-01T02:53:43.187Z,9.890747
2018-12-01T02:54:02.825Z,9.93103
2018-12-01T02:54:22.469Z,10.011597
2018-12-01T02:54:43.068Z,10.041809
2018-12-01T02:55:02.669Z,10.072021
2018-12-01T02:55:22.212Z,10.082092
2018-12-01T02:55:41.852Z,10.072021
2018-12-01T02:56:01.419Z,10.092163
2018-12-01T02:56:21.016Z,10.142517
2018-12-01T02:56:40.550Z,10.152588
2018-12-01T02:57:00.217Z,10.142517
2018-12-01T02:57:19.803Z,10.172729
2018-12-01T02:57:39.377Z,10.202942
2018-12-01T02:57:58.943Z,10.202942
2018-12-01T02:58:18.497Z,10.253296
2018-12-01T02:58:38.011Z,10.253296
2018-12-01T02:58:57.653Z,10.233154
2018-12-01T02:59:17.267Z,10.233154
2018-12-01T02:59:36.906Z,10.233154
2018-12-01T02:59:56.694Z,10.233154
2018-12-01T03:00:16.384Z,10.253296
2018-12-01T03:00:35.997Z,10.263367
2018-12-01T03:00:55.597Z,10.273438
2018-12-01T03:01:15.172Z,10.273438
2018-12-01T03:01:34.790Z,10.273438
2018-12-01T03:01:55.413Z,10.253296
2018-12-01T03:02:15.032Z,10.223083
2018-12-01T03:02:34.659Z,10.05188
2018-12-01T03:02:54.229Z,9.900818
2018-12-01T03:03:15.191Z,9.790039
2018-12-01T03:03:35.072Z,9.719543
2018-12-01T03:03:54.604Z,9.67926
2018-12-01T03:04:14.190Z,9.659119
2018-12-01T03:04:33.894Z,9.67926
2018-12-01T03:04:53.572Z,9.719543
2018-12-01T03:05:13.136Z,9.709473
2018-12-01T03:05:33.701Z,9.739685
2018-12-01T03:05:53.241Z,9.790039
2018-12-01T03:06:12.810Z,9.840393
2018-12-01T03:06:32.393Z,9.910889
2018-12-01T03:06:51.988Z,9.910889
2018-12-01T03:07:11.545Z,9.840393
2018-12-01T03:07:31.052Z,9.840393
2018-12-01T03:07:50.705Z,9.830322
2018-12-01T03:08:10.366Z,9.860535
2018-12-01T03:08:30.071Z,9.890747
2018-12-01T03:08:49.676Z,9.93103
2018-12-01T03:09:09.275Z,9.941101
2018-12-01T03:09:28.980Z,9.941101
2018-12-01T03:09:48.598Z,9.971313
2018-12-01T03:10:08.166Z,9.910889
2018-12-01T03:10:27.726Z,9.961243
2018-12-01T03:10:47.284Z,9.840393
2018-12-01T03:11:06.938Z,9.689331
2018-12-01T03:11:26.580Z,9.608765
2018-12-01T03:11:46.202Z,9.598694
2018-12-01T03:12:05.804Z,9.538269
2018-12-01T03:12:25.372Z,9.497986
2018-12-01T03:12:45.017Z,9.508057
2018-12-01T03:13:04.648Z,9.528198
2018-12-01T03:13:24.205Z,9.578552
2018-12-01T03:13:43.915Z,9.578552
2018-12-01T03:14:03.499Z,9.598694
2018-12-01T03:14:23.025Z,9.568481
2018-12-01T03:14:42.629Z,9.528198
2018-12-01T03:15:02.271Z,9.558411
2018-12-01T03:15:21.823Z,9.598694
2018-12-01T03:15:41.429Z,9.659119
2018-12-01T03:16:00.944Z,9.709473
2018-12-01T03:16:20.559Z,9.749756
2018-12-01T03:16:40.165Z,9.749756
2018-12-01T03:16:59.767Z,9.759827
2018-12-01T03:17:19.296Z,9.759827
2018-12-01T03:17:39.002Z,9.749756
2018-12-01T03:17:58.630Z,9.578552
2018-12-01T03:18:18.192Z,9.457703
2018-12-01T03:18:37.842Z,9.346924
2018-12-01T03:18:57.466Z,9.326782
2018-12-01T03:19:17.320Z,9.226074
2018-12-01T03:19:36.932Z,9.205933
2018-12-01T03:19:56.557Z,9.165649
2018-12-01T03:20:16.325Z,9.195862
2018-12-01T03:20:35.926Z,9.236145
2018-12-01T03:20:55.535Z,9.286499
2018-12-01T03:21:15.097Z,9.326782
2018-12-01T03:21:35.307Z,9.387207
2018-12-01T03:21:55.092Z,9.457703
2018-12-01T03:22:14.711Z,9.528198
2018-12-01T03:22:34.368Z,9.568481
2018-12-01T03:22:54.011Z,9.649048
2018-12-01T03:23:13.788Z,9.709473
2018-12-01T03:23:33.654Z,9.810181
2018-12-01T03:23:53.777Z,9.840393
2018-12-01T03:24:13.390Z,9.910889
2018-12-01T03:24:32.964Z,9.93103
2018-12-01T03:24:52.784Z,9.941101
2018-12-01T03:25:12.567Z,9.991455
2018-12-01T03:25:32.221Z,10.011597
2018-12-01T03:25:51.745Z,10.021667
2018-12-01T03:26:11.268Z,10.072021
2018-12-01T03:26:30.814Z,10.072021
2018-12-01T03:26:50.472Z,10.082092
2018-12-01T03:27:10.020Z,10.072021
2018-12-01T03:27:29.587Z,10.05188
2018-12-01T03:27:49.156Z,10.041809
2018-12-01T03:28:08.698Z,10.021667
2018-12-01T03:28:28.266Z,9.991455
2018-12-01T03:28:47.802Z,9.961243
2018-12-01T03:29:07.386Z,9.900818
2018-12-01T03:29:26.959Z,9.790039
2018-12-01T03:29:46.492Z,9.659119
2018-12-01T03:30:06.149Z,9.638977
2018-12-01T03:30:26.310Z,9.608765
2018-12-01T03:30:45.899Z,9.608765
2018-12-01T03:31:05.522Z,9.568481
2018-12-01T03:31:25.176Z,9.538269
2018-12-01T03:31:45.889Z,9.538269
2018-12-01T03:32:05.643Z,9.568481
2018-12-01T03:32:25.368Z,9.578552
2018-12-01T03:32:45.991Z,9.558411
2018-12-01T03:33:05.661Z,9.538269
2018-12-01T03:33:25.423Z,9.598694
2018-12-01T03:33:45.014Z,9.649048
2018-12-01T03:34:04.648Z,9.67926
2018-12-01T03:34:24.276Z,9.578552
2018-12-01T03:34:43.929Z,9.42749
2018-12-01T03:35:03.574Z,9.346924
2018-12-01T03:35:23.353Z,9.356995
2018-12-01T03:35:42.983Z,9.387207
2018-12-01T03:36:02.530Z,9.467773
2018-12-01T03:36:22.080Z,9.497986
2018-12-01T03:36:41.733Z,9.558411
2018-12-01T03:37:01.351Z,9.608765
2018-12-01T03:37:22.073Z,9.659119
2018-12-01T03:37:41.691Z,9.709473
2018-12-01T03:38:01.391Z,9.749756
2018-12-01T03:38:20.957Z,9.779968
2018-12-01T03:38:40.543Z,9.830322
2018-12-01T03:39:00.131Z,9.810181
2018-12-01T03:39:19.734Z,9.860535
2018-12-01T03:39:39.322Z,9.790039
2018-12-01T03:39:58.951Z,9.739685
2018-12-01T03:40:18.630Z,9.749756
2018-12-01T03:40:38.226Z,9.739685
2018-12-01T03:40:57.854Z,9.779968
2018-12-01T03:41:17.493Z,9.790039
2018-12-01T03:41:37.000Z,9.810181
2018-12-01T03:41:56.546Z,9.840393
2018-12-01T03:42:16.085Z,9.840393
2018-12-01T03:42:35.734Z,9.870605
2018-12-01T03:42:55.405Z,9.910889
2018-12-01T03:43:14.974Z,9.93103
2018-12-01T03:43:35.543Z,9.971313
2018-12-01T03:43:55.084Z,9.991455
2018-12-01T03:44:14.721Z,10.021667
2018-12-01T03:44:34.337Z,9.971313
2018-12-01T03:44:54.291Z,9.941101
2018-12-01T03:45:13.846Z,9.971313
2018-12-01T03:45:33.503Z,9.971313
2018-12-01T03:45:53.236Z,10.011597
2018-12-01T03:46:12.755Z,10.041809
2018-12-01T03:46:32.299Z,10.021667